Terminal Aerodrome Forecast
Issued by NWS

Home | Current Version | Previous Version | Text Only | Print | Product List | Glossary On
Versions: 1 2 3 4 5 6 7 8 9 10 11 12 13 14 15 16 17 18 19 20 21 22
000
FTUS41 KCAR 231900 AAB
TAFFVE
TAF AMD
KFVE 231938Z 2320/2418 35005KT 1 1/2SM -DZ BR OVC004
     FM240300 35009KT 2SM -RASN OVC005
     FM241400 35013G20KT 5SM -RADZ OVC009=

USA.gov is the U.S. government's official web portal to all federal, state and local government web resources and services.